sensor_id;sensor_type;location;lat;lon;timestamp;pressure;altitude;pressure_sealevel;temperature;humidity
33731;BME280;22931;48.636;9.000;2023-07-29T00:02:06;95664.72;;;20.54;65.99
33731;BME280;22931;48.636;9.000;2023-07-29T00:07:15;95658.25;;;20.51;65.71
33731;BME280;22931;48.636;9.000;2023-07-29T00:12:25;95649.81;;;20.53;66.07
33731;BME280;22931;48.636;9.000;2023-07-29T00:17:33;95647.56;;;20.51;65.86
33731;BME280;22931;48.636;9.000;2023-07-29T00:22:41;95653.75;;;20.45;65.86
33731;BME280;22931;48.636;9.000;2023-07-29T00:27:51;95641.22;;;20.42;65.66
33731;BME280;22931;48.636;9.000;2023-07-29T00:32:59;95649.66;;;20.36;65.67
33731;BME280;22931;48.636;9.000;2023-07-29T00:38:07;95650.47;;;20.33;65.95
33731;BME280;22931;48.636;9.000;2023-07-29T00:43:17;95652.00;;;20.34;66.13
33731;BME280;22931;48.636;9.000;2023-07-29T00:48:25;95648.56;;;20.34;65.69
33731;BME280;22931;48.636;9.000;2023-07-29T00:53:34;95640.22;;;20.28;65.44
33731;BME280;22931;48.636;9.000;2023-07-29T00:58:44;95639.47;;;20.28;65.97
33731;BME280;22931;48.636;9.000;2023-07-29T01:03:52;95636.47;;;20.22;65.90
33731;BME280;22931;48.636;9.000;2023-07-29T01:09:02;95637.28;;;20.19;66.10
33731;BME280;22931;48.636;9.000;2023-07-29T01:14:21;95626.16;;;20.21;66.57
33731;BME280;22931;48.636;9.000;2023-07-29T01:19:43;95627.72;;;20.18;66.46
33731;BME280;22931;48.636;9.000;2023-07-29T01:24:55;95639.22;;;20.15;66.30
33731;BME280;22931;48.636;9.000;2023-07-29T01:30:12;95637.28;;;20.19;67.14
33731;BME280;22931;48.636;9.000;2023-07-29T01:35:28;95638.03;;;20.20;66.76
33731;BME280;22931;48.636;9.000;2023-07-29T01:40:40;95626.16;;;20.21;66.46
33731;BME280;22931;48.636;9.000;2023-07-29T01:45:48;95622.00;;;20.20;66.57
33731;BME280;22931;48.636;9.000;2023-07-29T01:50:56;95615.91;;;20.19;66.28
33731;BME280;22931;48.636;9.000;2023-07-29T01:56:06;95609.75;;;20.22;66.73
33731;BME280;22931;48.636;9.000;2023-07-29T02:01:14;95609.75;;;20.22;66.41
33731;BME280;22931;48.636;9.000;2023-07-29T02:06:21;95592.19;;;20.21;66.25
33731;BME280;22931;48.636;9.000;2023-07-29T02:11:32;95581.47;;;20.25;66.78
33731;BME280;22931;48.636;9.000;2023-07-29T02:16:39;95586.09;;;20.24;66.42
33731;BME280;22931;48.636;9.000;2023-07-29T02:21:47;95577.31;;;20.24;66.70
33731;BME280;22931;48.636;9.000;2023-07-29T02:26:57;95591.44;;;20.24;66.48
33731;BME280;22931;48.636;9.000;2023-07-29T02:32:05;95596.41;;;20.22;66.38
33731;BME280;22931;48.636;9.000;2023-07-29T02:37:13;95592.97;;;20.22;66.49
33731;BME280;22931;48.636;9.000;2023-07-29T02:42:23;95583.78;;;20.23;66.64
33731;BME280;22931;48.636;9.000;2023-07-29T02:47:30;95586.47;;;20.23;66.46
33731;BME280;22931;48.636;9.000;2023-07-29T02:52:38;95591.03;;;20.22;66.24
33731;BME280;22931;48.636;9.000;2023-07-29T02:57:48;95581.13;;;20.23;66.77
33731;BME280;22931;48.636;9.000;2023-07-29T03:02:56;95573.88;;;20.23;66.59
33731;BME280;22931;48.636;9.000;2023-07-29T03:08:03;95574.63;;;20.24;66.33
33731;BME280;22931;48.636;9.000;2023-07-29T03:13:14;95557.78;;;20.27;66.89
33731;BME280;22931;48.636;9.000;2023-07-29T03:18:21;95545.53;;;20.29;66.40
33731;BME280;22931;48.636;9.000;2023-07-29T03:23:29;95552.38;;;20.30;66.82
33731;BME280;22931;48.636;9.000;2023-07-29T03:28:43;95546.59;;;20.35;66.49
33731;BME280;22931;48.636;9.000;2023-07-29T03:33:51;95551.59;;;20.33;66.95
33731;BME280;22931;48.636;9.000;2023-07-29T03:38:58;95550.78;;;20.36;66.70
33731;BME280;22931;48.636;9.000;2023-07-29T03:44:10;95562.63;;;20.35;66.51
33731;BME280;22931;48.636;9.000;2023-07-29T03:49:18;95549.25;;;20.35;66.79
33731;BME280;22931;48.636;9.000;2023-07-29T03:54:26;95553.09;;;20.34;66.24
33731;BME280;22931;48.636;9.000;2023-07-29T03:59:36;95555.38;;;20.36;66.80
33731;BME280;22931;48.636;9.000;2023-07-29T04:04:43;95541.59;;;20.37;66.14
33731;BME280;22931;48.636;9.000;2023-07-29T04:09:52;95533.56;;;20.37;67.04
33731;BME280;22931;48.636;9.000;2023-07-29T04:15:03;95545.38;;;20.40;66.78
33731;BME280;22931;48.636;9.000;2023-07-29T04:20:11;95574.00;;;20.39;66.22
33731;BME280;22931;48.636;9.000;2023-07-29T04:25:19;95588.19;;;20.36;66.28
33731;BME280;22931;48.636;9.000;2023-07-29T04:30:29;95557.28;;;20.35;66.72
33731;BME280;22931;48.636;9.000;2023-07-29T04:35:36;95559.59;;;20.33;66.39
33731;BME280;22931;48.636;9.000;2023-07-29T04:40:44;95548.56;;;20.31;66.84
33731;BME280;22931;48.636;9.000;2023-07-29T04:45:54;95566.09;;;20.32;67.13
33731;BME280;22931;48.636;9.000;2023-07-29T04:51:02;95602.00;;;20.31;66.75
33731;BME280;22931;48.636;9.000;2023-07-29T04:56:10;95581.44;;;20.28;67.17
33731;BME280;22931;48.636;9.000;2023-07-29T05:01:24;95580.63;;;20.31;67.41
33731;BME280;22931;48.636;9.000;2023-07-29T05:06:32;95571.09;;;20.30;66.78
33731;BME280;22931;48.636;9.000;2023-07-29T05:11:41;95584.44;;;20.30;66.99
33731;BME280;22931;48.636;9.000;2023-07-29T05:16:52;95568.72;;;20.36;67.68
33731;BME280;22931;48.636;9.000;2023-07-29T05:22:00;95560.63;;;20.39;67.57
33731;BME280;22931;48.636;9.000;2023-07-29T05:27:08;95566.72;;;20.44;67.98
33731;BME280;22931;48.636;9.000;2023-07-29T05:32:18;95555.91;;;20.51;68.36
33731;BME280;22931;48.636;9.000;2023-07-29T05:37:26;95577.97;;;20.55;68.18
33731;BME280;22931;48.636;9.000;2023-07-29T05:42:34;95569.50;;;20.60;68.02
33731;BME280;22931;48.636;9.000;2023-07-29T05:47:44;95557.19;;;20.66;68.08
33731;BME280;22931;48.636;9.000;2023-07-29T05:52:52;95547.94;;;20.70;68.21
33731;BME280;22931;48.636;9.000;2023-07-29T05:58:00;95554.75;;;20.75;68.15
33731;BME280;22931;48.636;9.000;2023-07-29T06:03:10;95550.81;;;20.83;68.09
33731;BME280;22931;48.636;9.000;2023-07-29T06:08:18;95560.63;;;20.89;68.15
33731;BME280;22931;48.636;9.000;2023-07-29T06:13:25;95548.97;;;20.99;67.79
33731;BME280;22931;48.636;9.000;2023-07-29T06:18:36;95562.59;;;21.09;68.60
33731;BME280;22931;48.636;9.000;2023-07-29T06:23:43;95560.97;;;21.15;68.14
33731;BME280;22931;48.636;9.000;2023-07-29T06:28:51;95568.53;;;21.20;68.30
33731;BME280;22931;48.636;9.000;2023-07-29T06:34:01;95585.28;;;21.24;69.04
33731;BME280;22931;48.636;9.000;2023-07-29T06:39:09;95585.66;;;21.22;67.96
33731;BME280;22931;48.636;9.000;2023-07-29T06:44:16;95589.25;;;21.16;67.98
33731;BME280;22931;48.636;9.000;2023-07-29T06:49:27;95595.41;;;21.13;68.66
33731;BME280;22931;48.636;9.000;2023-07-29T06:54:34;95626.06;;;21.08;68.35
33731;BME280;22931;48.636;9.000;2023-07-29T06:59:42;95621.56;;;21.01;68.30
33731;BME280;22931;48.636;9.000;2023-07-29T07:04:52;95597.16;;;20.99;68.21
33731;BME280;22931;48.636;9.000;2023-07-29T07:10:00;95603.34;;;20.93;68.55
33731;BME280;22931;48.636;9.000;2023-07-29T07:15:11;95606.84;;;20.90;68.44
33731;BME280;22931;48.636;9.000;2023-07-29T07:20:21;95582.03;;;20.89;68.77
33731;BME280;22931;48.636;9.000;2023-07-29T07:25:29;95590.09;;;20.86;68.34
33731;BME280;22931;48.636;9.000;2023-07-29T07:30:39;95594.97;;;20.91;68.65
33731;BME280;22931;48.636;9.000;2023-07-29T07:35:50;95589.16;;;20.96;68.83
33731;BME280;22931;48.636;9.000;2023-07-29T07:40:57;95596.38;;;20.99;68.73
33731;BME280;22931;48.636;9.000;2023-07-29T07:46:05;95597.06;;;21.03;68.88
33731;BME280;22931;48.636;9.000;2023-07-29T07:51:16;95603.84;;;21.11;69.83
33731;BME280;22931;48.636;9.000;2023-07-29T07:56:23;95597.59;;;21.18;69.05
33731;BME280;22931;48.636;9.000;2023-07-29T08:01:34;95591.31;;;21.28;69.35
33731;BME280;22931;48.636;9.000;2023-07-29T08:06:45;95604.19;;;21.36;69.29
33731;BME280;22931;48.636;9.000;2023-07-29T08:11:53;95610.16;;;21.44;68.98
33731;BME280;22931;48.636;9.000;2023-07-29T08:17:00;95616.53;;;21.50;69.40
33731;BME280;22931;48.636;9.000;2023-07-29T08:22:11;95619.78;;;21.61;69.20
33731;BME280;22931;48.636;9.000;2023-07-29T08:27:21;95628.03;;;21.70;69.18
33731;BME280;22931;48.636;9.000;2023-07-29T08:32:29;95619.78;;;21.81;69.58
33731;BME280;22931;48.636;9.000;2023-07-29T08:37:39;95630.59;;;21.97;69.75
33731;BME280;22931;48.636;9.000;2023-07-29T08:42:47;95630.72;;;22.09;70.38
33731;BME280;22931;48.636;9.000;2023-07-29T08:47:57;95634.09;;;22.29;69.80
33731;BME280;22931;48.636;9.000;2023-07-29T08:53:08;95629.56;;;22.46;70.19
33731;BME280;22931;48.636;9.000;2023-07-29T08:58:17;95627.31;;;22.61;70.21
33731;BME280;22931;48.636;9.000;2023-07-29T09:03:26;95625.44;;;22.77;70.04
33731;BME280;22931;48.636;9.000;2023-07-29T09:08:36;95615.50;;;22.90;69.82
33731;BME280;22931;48.636;9.000;2023-07-29T09:13:44;95622.56;;;23.00;69.08
33731;BME280;22931;48.636;9.000;2023-07-29T09:18:52;95605.44;;;23.11;69.12
33731;BME280;22931;48.636;9.000;2023-07-29T09:24:05;95599.19;;;23.30;69.17
33731;BME280;22931;48.636;9.000;2023-07-29T09:29:13;95583.94;;;23.43;69.35
33731;BME280;22931;48.636;9.000;2023-07-29T09:34:21;95581.63;;;23.57;69.04
33731;BME280;22931;48.636;9.000;2023-07-29T09:39:31;95599.59;;;23.73;68.88
33731;BME280;22931;48.636;9.000;2023-07-29T09:44:39;95587.72;;;23.87;68.39
33731;BME280;22931;48.636;9.000;2023-07-29T09:49:47;95586.53;;;24.00;68.55
33731;BME280;22931;48.636;9.000;2023-07-29T09:54:57;95580.78;;;24.14;68.32
33731;BME280;22931;48.636;9.000;2023-07-29T10:00:06;95586.84;;;24.31;68.26
33731;BME280;22931;48.636;9.000;2023-07-29T10:05:16;95581.78;;;24.46;67.77
33731;BME280;22931;48.636;9.000;2023-07-29T10:10:27;95590.91;;;24.61;66.94
33731;BME280;22931;48.636;9.000;2023-07-29T10:15:35;95591.34;;;24.72;66.01
33731;BME280;22931;48.636;9.000;2023-07-29T12:44:32;95584.91;;;26.95;54.01
33731;BME280;22931;48.636;9.000;2023-07-29T12:49:40;95590.59;;;26.88;56.08
33731;BME280;22931;48.636;9.000;2023-07-29T13:24:48;95581.44;;;26.85;54.19
33731;BME280;22931;48.636;9.000;2023-07-29T13:29:56;95579.66;;;26.92;54.38
33731;BME280;22931;48.636;9.000;2023-07-29T13:35:07;95566.59;;;26.99;52.26
33731;BME280;22931;48.636;9.000;2023-07-29T15:57:28;95585.56;;;27.35;50.38
33731;BME280;22931;48.636;9.000;2023-07-29T16:02:36;95582.69;;;27.30;50.40
33731;BME280;22931;48.636;9.000;2023-07-29T16:07:44;95581.19;;;27.29;49.86
33731;BME280;22931;48.636;9.000;2023-07-29T16:12:55;95570.53;;;27.25;50.05
33731;BME280;22931;48.636;9.000;2023-07-29T16:18:03;95560.16;;;27.24;50.76
33731;BME280;22931;48.636;9.000;2023-07-29T16:23:10;95556.56;;;27.27;50.17
33731;BME280;22931;48.636;9.000;2023-07-29T16:28:21;95563.31;;;27.31;50.30
33731;BME280;22931;48.636;9.000;2023-07-29T16:33:28;95557.91;;;27.31;49.89
33731;BME280;22931;48.636;9.000;2023-07-29T16:38:38;95556.25;;;27.34;50.13
33731;BME280;22931;48.636;9.000;2023-07-29T16:43:48;95547.56;;;27.39;50.00
33731;BME280;22931;48.636;9.000;2023-07-29T16:48:56;95547.88;;;27.41;49.50
33731;BME280;22931;48.636;9.000;2023-07-29T16:54:06;95555.38;;;27.37;49.34
33731;BME280;22931;48.636;9.000;2023-07-29T19:04:48;95624.44;;;23.32;62.55
33731;BME280;22931;48.636;9.000;2023-07-29T19:16:33;95627.94;;;23.17;60.82
33731;BME280;22931;48.636;9.000;2023-07-29T19:22:16;95636.66;;;23.21;62.20
33731;BME280;22931;48.636;9.000;2023-07-29T19:27:38;95634.38;;;23.19;61.22
33731;BME280;22931;48.636;9.000;2023-07-29T19:44:59;95626.88;;;23.27;60.79
33731;BME280;22931;48.636;9.000;2023-07-29T19:57:20;95637.31;;;23.25;60.40
33731;BME280;22931;48.636;9.000;2023-07-29T20:08:53;95644.94;;;23.10;60.49
33731;BME280;22931;48.636;9.000;2023-07-29T20:14:01;95639.69;;;23.07;60.23
33731;BME280;22931;48.636;9.000;2023-07-29T23:17:25;95685.00;;;22.33;62.26
33731;BME280;22931;48.636;9.000;2023-07-29T23:22:33;95669.72;;;22.30;62.24
33731;BME280;22931;48.636;9.000;2023-07-29T23:27:41;95677.44;;;22.28;62.38
33731;BME280;22931;48.636;9.000;2023-07-29T23:32:51;95675.91;;;22.27;62.71
33731;BME280;22931;48.636;9.000;2023-07-29T23:37:59;95679.06;;;22.22;62.24
33731;BME280;22931;48.636;9.000;2023-07-29T23:43:06;95669.19;;;22.19;61.99
33731;BME280;22931;48.636;9.000;2023-07-29T23:48:17;95684.19;;;22.16;62.48
33731;BME280;22931;48.636;9.000;2023-07-29T23:53:24;95681.56;;;22.13;62.49
33731;BME280;22931;48.636;9.000;2023-07-29T23:58:32;95685.50;;;22.08;62.08
